createdAt,value
2022-09-04T00:00:33.563Z,15.55
2022-09-04T00:02:33.549Z,15.49
2022-09-04T00:04:33.686Z,15.43
2022-09-04T00:06:33.556Z,15.42
2022-09-04T00:08:33.551Z,15.44
2022-09-04T00:11:33.941Z,15.43
2022-09-04T00:13:33.951Z,15.33
2022-09-04T00:15:33.940Z,15.33
2022-09-04T00:17:33.957Z,15.32
2022-09-04T00:19:33.930Z,15.3
2022-09-04T00:21:33.980Z,15.3
2022-09-04T00:23:33.931Z,15.27
2022-09-04T00:26:13.359Z,15.2
2022-09-04T00:28:13.306Z,15.19
2022-09-04T00:30:13.308Z,15.14
2022-09-04T00:32:13.361Z,15.04
2022-09-04T00:34:13.318Z,15.04
2022-09-04T00:36:13.360Z,14.9
2022-09-04T00:38:13.310Z,14.78
2022-09-04T00:41:10.853Z,14.82
2022-09-04T00:43:10.857Z,14.82
2022-09-04T00:45:11.892Z,14.88
2022-09-04T00:47:10.854Z,14.85
2022-09-04T00:49:10.896Z,14.82
2022-09-04T00:51:10.865Z,14.71
2022-09-04T00:53:10.857Z,14.74
2022-09-04T00:55:10.893Z,14.92
2022-09-04T00:56:51.903Z,15
2022-09-04T00:58:51.791Z,14.99
2022-09-04T01:00:51.831Z,14.97
2022-09-04T01:02:51.770Z,14.83
2022-09-04T01:04:51.783Z,14.85
2022-09-04T01:06:51.803Z,14.87
2022-09-04T01:08:52.950Z,14.85
2022-09-04T01:12:22.343Z,14.84
2022-09-04T01:14:22.354Z,14.84
2022-09-04T01:16:22.394Z,14.88
2022-09-04T01:18:22.343Z,14.77
2022-09-04T01:20:22.315Z,14.73
2022-09-04T01:22:22.329Z,14.71
2022-09-04T01:24:22.312Z,14.75
2022-09-04T01:27:11.748Z,14.72
2022-09-04T01:29:11.605Z,14.69
2022-09-04T01:31:11.622Z,14.68
2022-09-04T01:33:11.593Z,14.68
2022-09-04T01:35:11.647Z,14.59
2022-09-04T01:37:11.586Z,14.68
2022-09-04T01:39:11.585Z,14.76
2022-09-04T01:41:58.942Z,14.67
2022-09-04T01:43:58.920Z,14.72
2022-09-04T01:45:58.974Z,14.67
2022-09-04T01:47:58.928Z,14.72
2022-09-04T01:49:58.925Z,14.63
2022-09-04T01:51:58.935Z,14.5
2022-09-04T01:53:58.922Z,14.46
2022-09-04T01:57:49.583Z,14.56
2022-09-04T01:59:53.068Z,14.52
2022-09-04T02:01:49.671Z,14.58
2022-09-04T02:03:49.581Z,14.67
2022-09-04T02:05:49.575Z,14.68
2022-09-04T02:07:49.591Z,14.66
2022-09-04T02:09:49.569Z,14.62
2022-09-04T02:12:50.974Z,14.59
2022-09-04T02:14:50.951Z,14.55
2022-09-04T02:16:50.975Z,14.55
2022-09-04T02:18:50.976Z,14.51
2022-09-04T02:20:50.948Z,14.36
2022-09-04T02:22:50.946Z,14.33
2022-09-04T02:24:51.150Z,14.24
2022-09-04T02:28:06.415Z,14.22
2022-09-04T02:30:06.708Z,14.35
2022-09-04T02:32:06.418Z,14.48
2022-09-04T02:34:06.414Z,14.39
2022-09-04T02:36:06.490Z,14.38
2022-09-04T02:38:06.416Z,14.38
2022-09-04T02:40:06.570Z,14.29
2022-09-04T02:42:37.716Z,14.18
2022-09-04T02:44:37.688Z,14.12
2022-09-04T02:46:41.239Z,14.06
2022-09-04T02:48:37.659Z,14.05
2022-09-04T02:50:37.697Z,14.02
2022-09-04T02:52:37.744Z,14.01
2022-09-04T02:54:37.662Z,14.04
2022-09-04T02:57:39.899Z,14.03
2022-09-04T02:59:39.894Z,14
2022-09-04T03:01:39.972Z,14
2022-09-04T03:03:39.951Z,13.99
2022-09-04T03:05:39.946Z,13.93
2022-09-04T03:07:39.885Z,13.84
2022-09-04T03:09:39.934Z,13.86
2022-09-04T03:11:39.886Z,13.88
2022-09-04T03:13:09.577Z,13.84
2022-09-04T03:15:09.618Z,13.84
2022-09-04T03:17:09.576Z,13.64
2022-09-04T03:19:09.580Z,13.68
2022-09-04T03:21:09.619Z,13.78
2022-09-04T03:23:09.561Z,13.87
2022-09-04T03:25:09.580Z,13.93
2022-09-04T03:28:49.121Z,13.93
2022-09-04T03:30:49.139Z,13.95
2022-09-04T03:32:49.159Z,13.88
2022-09-04T03:34:49.109Z,13.84
2022-09-04T03:36:49.170Z,13.83
2022-09-04T03:38:49.120Z,13.83
2022-09-04T03:40:49.090Z,13.99
2022-09-04T03:43:55.278Z,14.03
2022-09-04T03:45:55.254Z,14.02
2022-09-04T03:47:55.207Z,13.93
2022-09-04T03:49:55.234Z,13.81
2022-09-04T03:51:55.206Z,13.9
2022-09-04T03:53:55.233Z,13.88
2022-09-04T03:55:55.249Z,13.99
2022-09-04T03:59:02.922Z,13.93
2022-09-04T04:01:02.958Z,13.87
2022-09-04T04:03:02.956Z,14.03
2022-09-04T04:05:02.949Z,14.03
2022-09-04T04:07:02.879Z,14.15
2022-09-04T04:09:02.862Z,14.23
2022-09-04T04:11:02.912Z,14.23
2022-09-04T04:13:52.445Z,14.35
2022-09-04T04:15:52.521Z,14.46
2022-09-04T04:17:52.430Z,14.65
2022-09-04T04:19:52.435Z,14.72
2022-09-04T04:21:52.440Z,14.83
2022-09-04T04:23:52.432Z,14.67
2022-09-04T04:25:52.859Z,14.63
2022-09-04T04:29:11.349Z,14.37
2022-09-04T04:31:11.354Z,14.47
2022-09-04T04:33:11.338Z,14.51
2022-09-04T04:35:11.334Z,14.4
2022-09-04T04:37:11.378Z,14.43
2022-09-04T04:39:11.339Z,14.41
2022-09-04T04:41:11.331Z,14.63
2022-09-04T04:43:58.691Z,14.85
2022-09-04T04:45:58.670Z,15.29
2022-09-04T04:47:58.660Z,16.59
2022-09-04T04:49:58.704Z,18.28
2022-09-04T04:51:58.654Z,19.07
2022-09-04T04:53:58.662Z,21.02
2022-09-04T04:55:58.689Z,22.33
2022-09-04T04:59:35.302Z,22.63
2022-09-04T05:01:35.427Z,24.1
2022-09-04T05:03:35.236Z,24.93
2022-09-04T05:05:35.237Z,25.34
2022-09-04T05:07:35.254Z,25.75
2022-09-04T05:09:35.241Z,26.49
2022-09-04T05:11:35.233Z,27.01
2022-09-04T05:14:19.748Z,26.93
2022-09-04T05:16:19.751Z,26.91
2022-09-04T05:18:19.741Z,26.41
2022-09-04T05:20:19.772Z,25.15
2022-09-04T05:22:19.733Z,23.87
2022-09-04T05:24:19.754Z,22.93
2022-09-04T05:26:19.729Z,22.56
2022-09-04T05:30:11.838Z,21.97
2022-09-04T05:32:11.859Z,22.17
2022-09-04T05:34:11.818Z,21.38
2022-09-04T05:36:11.827Z,21.36
2022-09-04T05:38:11.883Z,21.5
2022-09-04T05:40:11.835Z,21.64
2022-09-04T05:42:11.818Z,21.05
2022-09-04T05:44:45.896Z,21.33
2022-09-04T05:46:45.913Z,21.46
2022-09-04T05:48:45.890Z,20.94
2022-09-04T05:50:45.841Z,20.63
2022-09-04T05:52:45.848Z,20.59
2022-09-04T05:54:45.909Z,20.33
2022-09-04T05:56:45.848Z,20.52
2022-09-04T05:59:38.056Z,20.68
2022-09-04T06:01:38.140Z,20.86
2022-09-04T06:03:38.048Z,20.91
2022-09-04T06:05:38.063Z,20.84
2022-09-04T06:07:38.024Z,20.86
2022-09-04T06:09:38.042Z,20.4
2022-09-04T06:11:38.560Z,19.81
2022-09-04T06:13:39.034Z,19.73
2022-09-04T06:14:50.991Z,19.91
2022-09-04T06:16:50.986Z,19.73
2022-09-04T06:18:50.972Z,19.38
2022-09-04T06:20:50.965Z,19.92
2022-09-04T06:22:53.840Z,19.7
2022-09-04T06:24:50.989Z,19.95
2022-09-04T06:26:50.989Z,19.81
2022-09-04T06:28:50.999Z,20.08
2022-09-04T06:30:34.420Z,20.18
2022-09-04T06:32:34.424Z,20.18
2022-09-04T06:34:34.400Z,20.55
2022-09-04T06:36:34.411Z,20.14
2022-09-04T06:38:34.463Z,19.8
2022-09-04T06:40:34.446Z,19.85
2022-09-04T06:42:34.393Z,20.14
2022-09-04T06:46:02.261Z,20.45
2022-09-04T06:47:59.364Z,20.7
2022-09-04T06:49:59.410Z,20.55
2022-09-04T06:51:59.371Z,20.81
2022-09-04T06:53:59.398Z,20.91
2022-09-04T06:55:59.358Z,21.18
2022-09-04T06:57:59.379Z,21.48
2022-09-04T07:01:09.404Z,21.46
2022-09-04T07:03:09.339Z,21.74
2022-09-04T07:05:09.392Z,21.22
2022-09-04T07:07:09.345Z,20.62
2022-09-04T07:09:09.339Z,20.72
2022-09-04T07:11:09.339Z,20.6
2022-09-04T07:13:09.346Z,21.03
2022-09-04T07:15:31.463Z,21.35
2022-09-04T07:17:31.356Z,21.35
2022-09-04T07:19:31.389Z,21.33
2022-09-04T07:21:31.398Z,21.7
2022-09-04T07:23:31.368Z,21.4
2022-09-04T07:25:31.381Z,21.32
2022-09-04T07:27:31.431Z,21.04
2022-09-04T07:31:08.695Z,21.58
2022-09-04T07:33:08.727Z,21.43
2022-09-04T07:35:08.656Z,21.61
2022-09-04T07:37:09.076Z,21.82
2022-09-04T07:39:08.638Z,21.98
2022-09-04T07:41:08.662Z,21.55
2022-09-04T07:43:08.732Z,21.83
2022-09-04T07:46:33.849Z,21.37
2022-09-04T07:48:33.883Z,21.54
2022-09-04T07:50:33.786Z,22.32
2022-09-04T07:52:33.826Z,21.96
2022-09-04T07:54:33.832Z,21.68
2022-09-04T07:56:33.798Z,21.82
2022-09-04T07:58:33.788Z,21.8
2022-09-04T08:01:13.656Z,21.91
2022-09-04T08:03:13.530Z,22.49
2022-09-04T08:05:13.596Z,22.6
2022-09-04T08:07:13.590Z,23
2022-09-04T08:09:13.542Z,23.15
2022-09-04T08:11:13.623Z,23.17
2022-09-04T08:13:13.727Z,22.92
2022-09-04T08:16:40.731Z,23.45
2022-09-04T08:18:40.734Z,23.77
2022-09-04T08:20:40.749Z,23.15
2022-09-04T08:22:40.724Z,23.14
2022-09-04T08:24:40.816Z,23.05
2022-09-04T08:26:40.757Z,23.65
2022-09-04T08:28:44.195Z,24.17
2022-09-04T08:31:19.909Z,23.83
2022-09-04T08:33:19.839Z,23.47
2022-09-04T08:35:19.840Z,23.64
2022-09-04T08:37:20.926Z,23.33
2022-09-04T08:39:19.897Z,23.35
2022-09-04T08:41:19.815Z,23.51
2022-09-04T08:43:19.866Z,23.69
2022-09-04T08:45:19.831Z,23.96
2022-09-04T08:46:28.713Z,24.22
2022-09-04T08:48:25.677Z,24.23
2022-09-04T08:50:25.552Z,24.2
2022-09-04T08:52:25.542Z,24.27
2022-09-04T08:54:25.559Z,24.35
2022-09-04T08:56:25.557Z,24.47
2022-09-04T08:58:25.713Z,24.18
2022-09-04T09:00:25.550Z,24.1
2022-09-04T09:01:38.257Z,24.35
2022-09-04T09:03:38.222Z,24.65
2022-09-04T09:05:38.185Z,25.03
2022-09-04T09:07:38.175Z,25.37
2022-09-04T09:09:38.183Z,25.51
2022-09-04T09:11:38.214Z,25.4
2022-09-04T09:13:38.183Z,25.65
2022-09-04T09:15:38.199Z,25.46
2022-09-04T09:17:01.654Z,25.94
2022-09-04T09:19:01.635Z,25.91
2022-09-04T09:21:01.681Z,26.39
2022-09-04T09:23:01.576Z,26.32
2022-09-04T09:25:01.781Z,26.55
2022-09-04T09:27:01.603Z,26.2
2022-09-04T09:29:01.621Z,25.72
2022-09-04T09:32:16.210Z,25.61
2022-09-04T09:34:16.215Z,26.07
2022-09-04T09:36:16.174Z,26.18
2022-09-04T09:38:16.237Z,26.29
2022-09-04T09:40:16.208Z,26.17
2022-09-04T09:42:16.185Z,25.67
2022-09-04T09:44:16.142Z,25.95
2022-09-04T09:47:36.911Z,26.03
2022-09-04T09:49:36.915Z,25.24
2022-09-04T09:51:37.073Z,25.49
2022-09-04T09:53:36.928Z,25.81
2022-09-04T09:55:36.885Z,25.52
2022-09-04T09:57:36.918Z,25.55
2022-09-04T09:59:36.929Z,26.21
2022-09-04T10:02:49.413Z,26.83
2022-09-04T10:04:49.303Z,26.92
2022-09-04T10:06:49.295Z,27.08
2022-09-04T10:08:49.363Z,26.87
2022-09-04T10:10:49.287Z,26.78
2022-09-04T10:12:49.452Z,26.25
2022-09-04T10:14:49.348Z,26.16
2022-09-04T10:18:17.890Z,26.72
2022-09-04T10:20:17.900Z,26.38
2022-09-04T10:22:17.885Z,26.12
2022-09-04T10:24:17.857Z,26.57
2022-09-04T10:26:17.913Z,26.3
2022-09-04T10:28:17.857Z,26.25
2022-09-04T10:30:17.830Z,26.93
2022-09-04T10:32:40.231Z,27.33
2022-09-04T10:34:40.251Z,27.21
2022-09-04T10:36:40.195Z,27.25
2022-09-04T10:38:40.191Z,27.27
2022-09-04T10:40:43.879Z,27.5
2022-09-04T10:42:40.247Z,28.08
2022-09-04T10:44:40.182Z,26.9
2022-09-04T10:46:40.186Z,26.36
2022-09-04T10:47:58.962Z,26.82
2022-09-04T10:49:58.929Z,27.65
2022-09-04T10:51:58.980Z,27.48
2022-09-04T10:53:58.972Z,27.2
2022-09-04T10:55:58.986Z,27.58
2022-09-04T10:57:58.909Z,28
2022-09-04T10:59:59.371Z,26.93
2022-09-04T11:03:46.495Z,28.43
2022-09-04T11:05:46.527Z,28.35
2022-09-04T11:07:46.465Z,28.25
2022-09-04T11:09:46.496Z,28.19
2022-09-04T11:11:46.471Z,28.15
2022-09-04T11:13:50.706Z,27.98
2022-09-04T11:15:46.586Z,28.05
2022-09-04T11:18:51.200Z,27.47
2022-09-04T11:20:51.160Z,27.34
2022-09-04T11:22:51.295Z,27.69
2022-09-04T11:24:51.137Z,27.77
2022-09-04T11:26:51.158Z,27.26
2022-09-04T11:28:51.105Z,27.57
2022-09-04T11:30:51.169Z,27.94
2022-09-04T11:33:45.085Z,28.09
2022-09-04T11:35:45.045Z,28.18
2022-09-04T11:37:45.074Z,28.28
2022-09-04T11:39:45.117Z,28.21
2022-09-04T11:41:45.113Z,28.21
2022-09-04T11:43:45.244Z,27.98
2022-09-04T11:45:45.197Z,27.77
2022-09-04T11:49:06.974Z,27.98
2022-09-04T11:51:07.072Z,28.09
2022-09-04T11:53:06.949Z,28.09
2022-09-04T11:55:07.147Z,28.12
2022-09-04T11:57:06.994Z,28.16
2022-09-04T11:59:07.034Z,28.18
2022-09-04T12:01:08.551Z,28.07
2022-09-04T12:04:12.029Z,28.16
2022-09-04T12:06:12.060Z,28.18
2022-09-04T12:08:12.247Z,28.09
2022-09-04T12:10:12.236Z,27.96
2022-09-04T12:12:12.205Z,28.18
2022-09-04T12:14:12.385Z,28.44
2022-09-04T12:16:12.235Z,28.55
2022-09-04T12:19:24.338Z,27.86
2022-09-04T12:21:24.545Z,27.96
2022-09-04T12:23:24.505Z,27.48
2022-09-04T12:25:24.348Z,27.21
2022-09-04T12:27:24.575Z,27.38
2022-09-04T12:29:24.343Z,27.61
2022-09-04T12:31:24.734Z,27.6
2022-09-04T12:34:11.326Z,27.57
2022-09-04T12:36:11.404Z,27.46
2022-09-04T12:38:11.399Z,27.59
2022-09-04T12:40:11.385Z,27.63
2022-09-04T12:42:11.407Z,27.04
2022-09-04T12:44:11.403Z,27.11
2022-09-04T12:46:11.459Z,27.22
2022-09-04T12:49:59.159Z,26.88
2022-09-04T12:51:59.145Z,27.01
2022-09-04T12:53:59.223Z,27.03
2022-09-04T12:55:59.484Z,27.2
2022-09-04T12:57:58.764Z,27.03
2022-09-04T12:59:58.773Z,27.04
2022-09-04T13:01:58.878Z,26.73
2022-09-04T13:04:18.155Z,26.8
2022-09-04T13:06:18.150Z,26.68
2022-09-04T13:08:18.118Z,26.1
2022-09-04T13:10:18.100Z,26.36
2022-09-04T13:12:18.137Z,26.28
2022-09-04T13:14:18.181Z,26.02
2022-09-04T13:16:18.233Z,25.66
2022-09-04T13:18:18.100Z,25.74
2022-09-04T13:19:58.304Z,25.58
2022-09-04T13:21:58.409Z,25.78
2022-09-04T13:23:58.303Z,25.81
2022-09-04T13:25:58.329Z,26.07
2022-09-04T13:27:58.429Z,25.97
2022-09-04T13:30:02.438Z,25.94
2022-09-04T13:31:58.325Z,25.75
2022-09-04T13:35:07.229Z,25.53
2022-09-04T13:37:07.277Z,25.51
2022-09-04T13:39:07.259Z,25.52
2022-09-04T13:41:07.328Z,25.32
2022-09-04T13:43:07.294Z,24.97
2022-09-04T13:45:07.241Z,25.17
2022-09-04T13:47:07.393Z,24.94
2022-09-04T13:50:40.756Z,25.48
2022-09-04T13:52:40.740Z,25.76
2022-09-04T13:54:40.762Z,25.87
2022-09-04T13:56:40.768Z,26.11
2022-09-04T13:58:43.280Z,26.38
2022-09-04T14:00:40.862Z,26.53
2022-09-04T14:02:40.744Z,26.6
2022-09-04T14:05:09.007Z,26.54
2022-09-04T14:07:09.002Z,26.5
2022-09-04T14:09:09.004Z,26.39
2022-09-04T14:11:09.026Z,26.35
2022-09-04T14:13:08.994Z,26.33
2022-09-04T14:15:08.995Z,26.31
2022-09-04T14:17:08.989Z,26.23
2022-09-04T14:20:27.362Z,26.13
2022-09-04T14:22:27.246Z,26.13
2022-09-04T14:24:27.285Z,26.11
2022-09-04T14:26:27.194Z,26.06
2022-09-04T14:28:27.243Z,26.03
2022-09-04T14:30:27.314Z,25.99
2022-09-04T14:32:27.239Z,25.89
2022-09-04T14:35:44.365Z,25.84
2022-09-04T14:37:44.343Z,25.67
2022-09-04T14:39:44.373Z,25.71
2022-09-04T14:41:44.344Z,25.41
2022-09-04T14:43:44.378Z,25.51
2022-09-04T14:45:44.294Z,25.6
2022-09-04T14:47:44.293Z,25.34
2022-09-04T14:50:22.340Z,25.6
2022-09-04T14:52:22.326Z,25.67
2022-09-04T14:54:22.446Z,25.63
2022-09-04T14:56:22.385Z,25.54
2022-09-04T14:58:22.365Z,25.53
2022-09-04T15:00:22.421Z,25.53
2022-09-04T15:02:22.381Z,25.48
2022-09-04T15:04:22.331Z,25.4
2022-09-04T15:06:01.535Z,25.33
2022-09-04T15:08:01.489Z,25.32
2022-09-04T15:10:01.573Z,25.26
2022-09-04T15:12:23.201Z,25.16
2022-09-04T15:14:01.535Z,25.08
2022-09-04T15:16:01.572Z,24.99
2022-09-04T15:18:01.480Z,24.93
2022-09-04T15:20:46.558Z,24.79
2022-09-04T15:22:46.567Z,24.65
2022-09-04T15:24:46.602Z,24.59
2022-09-04T15:26:46.991Z,24.52
2022-09-04T15:28:46.547Z,24.43
2022-09-04T15:30:46.597Z,24.3
2022-09-04T15:32:46.544Z,24.31
2022-09-04T15:34:46.556Z,24.25
2022-09-04T15:35:56.852Z,24.24
2022-09-04T15:38:00.303Z,24.19
2022-09-04T15:39:56.966Z,24.16
2022-09-04T15:41:56.865Z,24.1
2022-09-04T15:43:56.808Z,24.05
2022-09-04T15:45:56.915Z,24.01
2022-09-04T15:47:56.907Z,23.94
2022-09-04T15:49:57.026Z,23.87
2022-09-04T15:51:00.117Z,23.83
2022-09-04T15:53:00.089Z,23.74
2022-09-04T15:55:00.130Z,23.69
2022-09-04T15:57:00.074Z,23.56
2022-09-04T15:59:00.069Z,23.44
2022-09-04T16:01:00.122Z,23.31
2022-09-04T16:03:00.119Z,23.16
2022-09-04T16:05:00.083Z,23.09
2022-09-04T16:07:00.629Z,22.84
2022-09-04T16:09:00.605Z,22.75
2022-09-04T16:11:00.584Z,22.69
2022-09-04T16:13:00.592Z,22.7
2022-09-04T16:15:01.230Z,22.69
2022-09-04T16:17:00.585Z,22.61
2022-09-04T16:19:00.641Z,22.51
2022-09-04T16:22:02.729Z,22.45
2022-09-04T16:24:02.757Z,22.4
2022-09-04T16:26:02.773Z,22.27
2022-09-04T16:28:02.711Z,22.26
2022-09-04T16:30:02.720Z,22.19
2022-09-04T16:32:02.727Z,22.18
2022-09-04T16:34:02.759Z,22.16
2022-09-04T16:37:15.401Z,22.09
2022-09-04T16:39:15.504Z,22.06
2022-09-04T16:41:15.389Z,21.99
2022-09-04T16:43:15.454Z,21.92
2022-09-04T16:45:15.394Z,21.86
2022-09-04T16:47:15.373Z,21.75
2022-09-04T16:49:19.092Z,21.67
2022-09-04T16:51:53.286Z,21.62
2022-09-04T16:53:53.325Z,21.56
2022-09-04T16:55:53.269Z,21.53
2022-09-04T16:57:53.306Z,21.49
2022-09-04T16:59:53.306Z,21.4
2022-09-04T17:01:53.366Z,21.27
2022-09-04T17:03:54.046Z,21.26
2022-09-04T17:07:28.985Z,21.17
2022-09-04T17:09:25.989Z,21.11
2022-09-04T17:11:25.923Z,20.98
2022-09-04T17:13:27.782Z,20.57
2022-09-04T17:15:25.988Z,20.73
2022-09-04T17:17:30.460Z,20.78
2022-09-04T17:19:25.953Z,20.79
2022-09-04T17:26:00.880Z,20.77
2022-09-04T17:27:58.894Z,20.73
2022-09-04T17:29:05.525Z,20.75
2022-09-04T17:29:06.459Z,20.74
2022-09-04T17:30:53.092Z,20.74
2022-09-04T17:33:34.182Z,20.77
2022-09-04T17:40:45.807Z,20.76
2022-09-04T17:40:45.981Z,20.77
2022-09-04T17:40:46.122Z,20.73
2022-09-04T17:42:08.670Z,20.71
2022-09-04T17:43:59.538Z,20.67
2022-09-04T17:45:59.567Z,20.68
2022-09-04T17:48:01.940Z,20.6
2022-09-04T17:49:59.484Z,20.56
2022-09-04T17:53:14.741Z,20.56
2022-09-04T17:55:14.748Z,20.56
2022-09-04T17:57:14.760Z,20.59
2022-09-04T17:59:14.731Z,20.57
2022-09-04T18:01:15.915Z,20.54
2022-09-04T18:03:14.711Z,20.46
2022-09-04T18:05:14.727Z,20.39
2022-09-04T18:08:26.158Z,20.41
2022-09-04T18:10:26.100Z,20.35
2022-09-04T18:12:26.048Z,20.33
2022-09-04T18:14:26.046Z,20.24
2022-09-04T18:16:26.117Z,20.13
2022-09-04T18:18:26.484Z,20.13
2022-09-04T18:20:26.115Z,20.11
2022-09-04T18:23:10.966Z,20.14
2022-09-04T18:25:14.384Z,20.12
2022-09-04T18:27:10.918Z,20.16
2022-09-04T18:29:14.063Z,20.1
2022-09-04T18:35:06.478Z,20.08
2022-09-04T18:36:12.885Z,20.05
2022-09-04T18:37:13.973Z,20.05
2022-09-04T18:37:52.790Z,20.11
2022-09-04T18:39:52.757Z,20.08
2022-09-04T18:43:35.978Z,20.1
2022-09-04T18:49:26.552Z,20.03
2022-09-04T18:50:26.326Z,19.91
2022-09-04T18:50:27.697Z,19.77
2022-09-04T18:50:42.637Z,19.96
2022-09-04T18:51:52.699Z,19.75
2022-09-04T18:53:22.660Z,19.77
2022-09-04T18:55:22.713Z,19.83
2022-09-04T18:57:22.740Z,19.86
2022-09-04T18:59:22.714Z,19.82
2022-09-04T19:01:27.019Z,19.86
2022-09-04T19:03:22.634Z,19.83
2022-09-04T19:05:24.036Z,19.87
2022-09-04T19:08:53.777Z,19.66
2022-09-04T19:10:53.459Z,19.55
2022-09-04T19:12:53.510Z,19.48
2022-09-04T19:14:53.458Z,19.53
2022-09-04T19:16:53.562Z,19.57
2022-09-04T19:18:53.450Z,19.63
2022-09-04T19:20:53.464Z,19.63
2022-09-04T19:24:18.165Z,19.61
2022-09-04T19:26:18.129Z,19.53
2022-09-04T19:28:18.194Z,19.52
2022-09-04T19:30:20.181Z,19.59
2022-09-04T19:32:18.145Z,19.55
2022-09-04T19:34:18.106Z,19.45
2022-09-04T19:36:18.134Z,19.33
2022-09-04T19:43:18.236Z,18.86
2022-09-04T19:44:55.158Z,19.06
2022-09-04T19:45:58.265Z,19.2
2022-09-04T19:46:09.878Z,18.95
2022-09-04T19:47:27.762Z,19.04
2022-09-04T19:50:19.991Z,19.15
2022-09-04T19:53:20.907Z,19.22
2022-09-04T19:53:57.342Z,19.23
2022-09-04T19:55:56.829Z,19.23
2022-09-04T19:57:56.824Z,19.13
2022-09-04T19:59:56.854Z,19.11
2022-09-04T20:01:58.237Z,19.07
2022-09-04T20:03:56.833Z,19.09
2022-09-04T20:05:57.863Z,19.07
2022-09-04T20:09:09.845Z,18.94
2022-09-04T20:11:09.932Z,19.01
2022-09-04T20:13:09.877Z,18.91
2022-09-04T20:15:09.859Z,18.92
2022-09-04T20:17:09.869Z,18.88
2022-09-04T20:19:09.834Z,18.85
2022-09-04T20:21:09.838Z,18.9
2022-09-04T20:24:15.392Z,18.89
2022-09-04T20:26:15.391Z,18.86
2022-09-04T20:28:15.403Z,18.9
2022-09-04T20:30:15.378Z,18.97
2022-09-04T20:32:15.463Z,18.96
2022-09-04T20:34:15.385Z,18.9
2022-09-04T20:36:15.399Z,18.75
2022-09-04T20:40:01.347Z,18.8
2022-09-04T20:42:01.189Z,18.81
2022-09-04T20:44:01.225Z,18.9
2022-09-04T20:47:23.076Z,18.76
2022-09-04T20:52:40.629Z,18.74
2022-09-04T20:52:47.536Z,18.76
2022-09-04T20:53:01.058Z,18.68
2022-09-04T20:54:58.954Z,18.71
2022-09-04T20:57:36.007Z,18.7
2022-09-04T20:59:53.961Z,18.74
2022-09-04T21:03:15.808Z,18.68
2022-09-04T21:03:16.843Z,18.7
2022-09-04T21:04:58.955Z,18.69
2022-09-04T21:06:58.915Z,18.76
2022-09-04T21:10:16.976Z,18.69
2022-09-04T21:12:17.011Z,18.58
2022-09-04T21:14:17.018Z,18.61
2022-09-04T21:16:16.983Z,18.64
2022-09-04T21:18:18.266Z,18.62
2022-09-04T21:20:16.998Z,18.61
2022-09-04T21:22:21.709Z,18.59
2022-09-04T21:25:37.543Z,18.45
2022-09-04T21:27:37.536Z,18.47
2022-09-04T21:29:37.572Z,18.44
2022-09-04T21:31:43.879Z,18.47
2022-09-04T21:33:37.769Z,18.47
2022-09-04T21:35:37.527Z,18.58
2022-09-04T21:37:38.083Z,18.58
2022-09-04T21:40:19.625Z,18.61
2022-09-04T21:42:16.495Z,18.52
2022-09-04T21:44:07.950Z,18.48
2022-09-04T21:46:07.973Z,18.53
2022-09-04T21:48:10.243Z,18.47
2022-09-04T21:50:07.943Z,18.43
2022-09-04T21:52:07.966Z,18.42
2022-09-04T21:56:38.081Z,18.34
2022-09-04T21:58:52.480Z,18.29
2022-09-04T22:02:33.257Z,18.18
2022-09-04T22:02:34.348Z,18.38
2022-09-04T22:03:48.569Z,18.28
2022-09-04T22:05:48.481Z,18.28
2022-09-04T22:08:58.782Z,18.31
2022-09-04T22:13:28.204Z,18.31
2022-09-04T22:13:36.920Z,18.07
2022-09-04T22:14:27.177Z,18.19
2022-09-04T22:16:29.256Z,18.28
2022-09-04T22:18:27.166Z,18.23
2022-09-04T22:20:29.685Z,18.28
2022-09-04T22:22:27.163Z,18.22
2022-09-04T22:25:25.701Z,18.29
2022-09-04T22:27:25.710Z,18.2
2022-09-04T22:29:28.644Z,18.09
2022-09-04T22:31:25.744Z,18.13
2022-09-04T22:33:25.876Z,18.24
2022-09-04T22:35:26.997Z,18.23
2022-09-04T22:37:25.688Z,18.29
2022-09-04T22:39:27.395Z,18.3
2022-09-04T22:40:55.878Z,18.35
2022-09-04T22:42:51.199Z,18.39
2022-09-04T22:44:51.039Z,18.32
2022-09-04T22:46:51.114Z,18.25
2022-09-04T22:49:11.723Z,18.39
2022-09-04T22:50:51.145Z,18.42
2022-09-04T22:52:51.080Z,18.45
2022-09-04T22:56:29.598Z,18.38
2022-09-04T22:58:29.609Z,18.42
2022-09-04T23:00:29.588Z,18.33
2022-09-04T23:02:48.405Z,18.33
2022-09-04T23:04:29.586Z,18.37
2022-09-04T23:07:42.547Z,18.25
2022-09-04T23:12:12.180Z,18.38
2022-09-04T23:13:55.458Z,18.44
2022-09-04T23:14:06.209Z,18.48
2022-09-04T23:15:47.416Z,18.48
2022-09-04T23:17:51.095Z,18.53
2022-09-04T23:19:55.336Z,18.57
2022-09-04T23:24:41.135Z,18.55
2022-09-04T23:26:32.052Z,18.52
2022-09-04T23:26:40.391Z,18.45
2022-09-04T23:28:27.375Z,18.55
2022-09-04T23:30:20.651Z,18.59
2022-09-04T23:32:22.790Z,18.62
2022-09-04T23:34:19.974Z,18.6
2022-09-04T23:36:21.350Z,18.58
2022-09-04T23:38:19.964Z,18.65
2022-09-04T23:41:52.645Z,18.62
2022-09-04T23:43:48.003Z,18.64
2022-09-04T23:45:48.767Z,18.59
2022-09-04T23:47:49.354Z,18.44
2022-09-04T23:49:47.996Z,18.31
2022-09-04T23:51:48.011Z,18.42
2022-09-04T23:53:48.032Z,18.29
2022-09-04T23:57:08.139Z,18.35
2022-09-04T23:59:06.496Z,18.48
